sensor_id;sensor_type;location;lat;lon;timestamp;pressure;altitude;pressure_sealevel;temperature;humidity
48790;BME280;41718;51.980;5.734;2023-10-09T00:02:48;101737.69;;;12.58;100.00
48790;BME280;41718;51.980;5.734;2023-10-09T00:07:49;101754.22;;;12.61;100.00
48790;BME280;41718;51.980;5.734;2023-10-09T00:12:57;101746.31;;;12.55;100.00
48790;BME280;41718;51.980;5.734;2023-10-09T00:17:59;101755.94;;;12.59;100.00
48790;BME280;41718;51.980;5.734;2023-10-09T00:23:01;101765.75;;;12.76;100.00
48790;BME280;41718;51.980;5.734;2023-10-09T00:28:03;101764.88;;;12.75;100.00
48790;BME280;41718;51.980;5.734;2023-10-09T00:33:06;101749.75;;;12.96;100.00
48790;BME280;41718;51.980;5.734;2023-10-09T00:38:09;101748.13;;;13.03;100.00
48790;BME280;41718;51.980;5.734;2023-10-09T00:43:24;101769.88;;;13.08;100.00
48790;BME280;41718;51.980;5.734;2023-10-09T00:48:30;101775.72;;;12.96;100.00
48790;BME280;41718;51.980;5.734;2023-10-09T00:53:35;101784.47;;;13.00;100.00
48790;BME280;41718;51.980;5.734;2023-10-09T00:58:37;101787.63;;;12.85;100.00
48790;BME280;41718;51.980;5.734;2023-10-09T01:03:39;101780.59;;;12.81;100.00
48790;BME280;41718;51.980;5.734;2023-10-09T01:08:42;101794.97;;;13.06;100.00
48790;BME280;41718;51.980;5.734;2023-10-09T01:13:45;101797.00;;;13.21;100.00
48790;BME280;41718;51.980;5.734;2023-10-09T01:18:51;101782.88;;;13.52;100.00
48790;BME280;41718;51.980;5.734;2023-10-09T01:23:53;101763.94;;;13.59;100.00
48790;BME280;41718;51.980;5.734;2023-10-09T01:29:06;101762.31;;;13.66;100.00
48790;BME280;41718;51.980;5.734;2023-10-09T01:34:15;101762.41;;;13.72;100.00
48790;BME280;41718;51.980;5.734;2023-10-09T01:39:19;101752.06;;;13.75;100.00
48790;BME280;41718;51.980;5.734;2023-10-09T01:44:28;101746.88;;;13.76;100.00
48790;BME280;41718;51.980;5.734;2023-10-09T01:49:36;101740.03;;;13.80;100.00
48790;BME280;41718;51.980;5.734;2023-10-09T01:54:45;101730.69;;;13.93;100.00
48790;BME280;41718;51.980;5.734;2023-10-09T01:59:51;101722.94;;;13.96;100.00
48790;BME280;41718;51.980;5.734;2023-10-09T02:04:57;101710.84;;;14.01;100.00
48790;BME280;41718;51.980;5.734;2023-10-09T02:10:14;101700.56;;;14.09;100.00
48790;BME280;41718;51.980;5.734;2023-10-09T02:15:34;101703.19;;;14.10;100.00
48790;BME280;41718;51.980;5.734;2023-10-09T02:26:00;101672.88;;;14.14;100.00
48790;BME280;41718;51.980;5.734;2023-10-09T02:31:11;101653.00;;;14.19;100.00
48790;BME280;41718;51.980;5.734;2023-10-09T02:36:13;101648.59;;;14.13;100.00
48790;BME280;41718;51.980;5.734;2023-10-09T02:41:15;101640.81;;;14.16;100.00
48790;BME280;41718;51.980;5.734;2023-10-09T02:46:18;101632.13;;;14.17;100.00
48790;BME280;41718;51.980;5.734;2023-10-09T02:51:21;101623.59;;;14.27;100.00
48790;BME280;41718;51.980;5.734;2023-10-09T02:56:35;101627.03;;;14.25;100.00
48790;BME280;41718;51.980;5.734;2023-10-09T03:01:49;101620.19;;;14.35;100.00
48790;BME280;41718;51.980;5.734;2023-10-09T03:06:51;101611.63;;;14.43;100.00
48790;BME280;41718;51.980;5.734;2023-10-09T03:12:00;101593.22;;;14.26;100.00
48790;BME280;41718;51.980;5.734;2023-10-09T03:17:05;101600.16;;;14.26;100.00
48790;BME280;41718;51.980;5.734;2023-10-09T03:22:12;101596.63;;;14.19;100.00
48790;BME280;41718;51.980;5.734;2023-10-09T03:27:13;101593.16;;;14.22;100.00
48790;BME280;41718;51.980;5.734;2023-10-09T03:32:15;101588.00;;;14.25;100.00
48790;BME280;41718;51.980;5.734;2023-10-09T03:37:17;101586.28;;;14.27;100.00
48790;BME280;41718;51.980;5.734;2023-10-09T03:42:35;101583.69;;;14.28;100.00
48790;BME280;41718;51.980;5.734;2023-10-09T03:47:38;101580.16;;;14.23;100.00
48790;BME280;41718;51.980;5.734;2023-10-09T03:52:44;101581.88;;;14.23;100.00
48790;BME280;41718;51.980;5.734;2023-10-09T03:57:46;101584.53;;;14.27;100.00
48790;BME280;41718;51.980;5.734;2023-10-09T04:02:47;101581.19;;;14.36;100.00
48790;BME280;41718;51.980;5.734;2023-10-09T04:07:54;101602.03;;;14.39;100.00
48790;BME280;41718;51.980;5.734;2023-10-09T04:12:59;101614.19;;;14.40;100.00
48790;BME280;41718;51.980;5.734;2023-10-09T04:18:02;101632.47;;;14.43;100.00
48790;BME280;41718;51.980;5.734;2023-10-09T04:23:04;101616.09;;;14.50;100.00
48790;BME280;41718;51.980;5.734;2023-10-09T04:28:23;101625.63;;;14.48;100.00
48790;BME280;41718;51.980;5.734;2023-10-09T04:33:29;101610.06;;;14.53;100.00
48790;BME280;41718;51.980;5.734;2023-10-09T04:38:34;101592.75;;;14.58;100.00
48790;BME280;41718;51.980;5.734;2023-10-09T04:43:44;101598.63;;;14.46;100.00
48790;BME280;41718;51.980;5.734;2023-10-09T04:48:53;101604.84;;;14.54;100.00
48790;BME280;41718;51.980;5.734;2023-10-09T04:53:54;101585.81;;;14.58;100.00
48790;BME280;41718;51.980;5.734;2023-10-09T04:59:15;101584.97;;;14.63;100.00
48790;BME280;41718;51.980;5.734;2023-10-09T05:04:19;101592.81;;;14.64;100.00
48790;BME280;41718;51.980;5.734;2023-10-09T05:09:54;101605.03;;;14.70;100.00
48790;BME280;41718;51.980;5.734;2023-10-09T05:15:10;101598.03;;;14.69;100.00
48790;BME280;41718;51.980;5.734;2023-10-09T05:20:15;101592.94;;;14.76;100.00
48790;BME280;41718;51.980;5.734;2023-10-09T05:25:38;101587.72;;;14.79;100.00
48790;BME280;41718;51.980;5.734;2023-10-09T05:30:55;101613.88;;;14.87;100.00
48790;BME280;41718;51.980;5.734;2023-10-09T05:36:31;101606.94;;;14.89;100.00
48790;BME280;41718;51.980;5.734;2023-10-09T05:41:45;101614.75;;;14.91;100.00
48790;BME280;41718;51.980;5.734;2023-10-09T05:47:04;101622.66;;;14.98;100.00
48790;BME280;41718;51.980;5.734;2023-10-09T05:52:33;101647.75;;;14.92;100.00
48790;BME280;41718;51.980;5.734;2023-10-09T05:57:48;101649.56;;;14.96;100.00
48790;BME280;41718;51.980;5.734;2023-10-09T06:03:09;101661.75;;;14.98;100.00
48790;BME280;41718;51.980;5.734;2023-10-09T06:08:25;101667.78;;;14.97;100.00
48790;BME280;41718;51.980;5.734;2023-10-09T06:13:48;101670.44;;;15.00;100.00
48790;BME280;41718;51.980;5.734;2023-10-09T06:19:09;101662.69;;;15.08;100.00
48790;BME280;41718;51.980;5.734;2023-10-09T06:24:31;101644.50;;;15.09;100.00
48790;BME280;41718;51.980;5.734;2023-10-09T06:29:44;101617.56;;;15.09;100.00
48790;BME280;41718;51.980;5.734;2023-10-09T06:34:51;101612.25;;;15.03;100.00
48790;BME280;41718;51.980;5.734;2023-10-09T06:39:55;101649.66;;;15.03;100.00
48790;BME280;41718;51.980;5.734;2023-10-09T06:45:04;101634.97;;;15.15;100.00
48790;BME280;41718;51.980;5.734;2023-10-09T06:50:26;101638.41;;;15.12;100.00
48790;BME280;41718;51.980;5.734;2023-10-09T06:55:35;101637.50;;;15.08;100.00
48790;BME280;41718;51.980;5.734;2023-10-09T07:00:49;101652.31;;;15.14;100.00
48790;BME280;41718;51.980;5.734;2023-10-09T07:06:10;101681.03;;;15.16;100.00
48790;BME280;41718;51.980;5.734;2023-10-09T07:11:36;101680.19;;;15.18;100.00
48790;BME280;41718;51.980;5.734;2023-10-09T07:16:40;101675.94;;;15.28;100.00
48790;BME280;41718;51.980;5.734;2023-10-09T07:21:58;101663.78;;;15.31;100.00
48790;BME280;41718;51.980;5.734;2023-10-09T07:27:04;101666.41;;;15.36;100.00
48790;BME280;41718;51.980;5.734;2023-10-09T07:32:10;101686.41;;;15.37;100.00
48790;BME280;41718;51.980;5.734;2023-10-09T07:37:27;101676.13;;;15.51;100.00
48790;BME280;41718;51.980;5.734;2023-10-09T07:42:39;101678.78;;;15.58;100.00
48790;BME280;41718;51.980;5.734;2023-10-09T07:47:41;101613.63;;;15.63;100.00
48790;BME280;41718;51.980;5.734;2023-10-09T07:53:02;101603.13;;;15.58;100.00
48790;BME280;41718;51.980;5.734;2023-10-09T07:58:16;101599.72;;;15.64;100.00
48790;BME280;41718;51.980;5.734;2023-10-09T08:03:18;101633.72;;;15.72;100.00
48790;BME280;41718;51.980;5.734;2023-10-09T08:08:26;101649.38;;;15.76;100.00
48790;BME280;41718;51.980;5.734;2023-10-09T08:13:39;101670.34;;;15.90;100.00
48790;BME280;41718;51.980;5.734;2023-10-09T08:19:13;101674.75;;;16.05;100.00
48790;BME280;41718;51.980;5.734;2023-10-09T08:24:33;101680.88;;;16.08;100.00
48790;BME280;41718;51.980;5.734;2023-10-09T08:29:42;101697.44;;;16.16;100.00
48790;BME280;41718;51.980;5.734;2023-10-09T08:34:48;101711.44;;;16.25;100.00
48790;BME280;41718;51.980;5.734;2023-10-09T08:39:58;101700.19;;;16.35;100.00
48790;BME280;41718;51.980;5.734;2023-10-09T08:45:01;101723.75;;;16.47;100.00
48790;BME280;41718;51.980;5.734;2023-10-09T08:50:07;101745.53;;;16.54;100.00
48790;BME280;41718;51.980;5.734;2023-10-09T08:55:14;101790.91;;;16.68;100.00
48790;BME280;41718;51.980;5.734;2023-10-09T09:00:19;101800.59;;;16.80;100.00
48790;BME280;41718;51.980;5.734;2023-10-09T09:05:25;101827.66;;;16.92;100.00
48790;BME280;41718;51.980;5.734;2023-10-09T09:10:30;101853.84;;;17.06;100.00
48790;BME280;41718;51.980;5.734;2023-10-09T09:15:40;101863.50;;;17.22;100.00
48790;BME280;41718;51.980;5.734;2023-10-09T09:20:42;101884.44;;;17.29;100.00
48790;BME280;41718;51.980;5.734;2023-10-09T09:25:47;101888.81;;;17.34;100.00
48790;BME280;41718;51.980;5.734;2023-10-09T09:30:52;101897.59;;;17.52;100.00
48790;BME280;41718;51.980;5.734;2023-10-09T09:36:00;101915.94;;;17.56;100.00
48790;BME280;41718;51.980;5.734;2023-10-09T09:41:04;101927.34;;;17.70;100.00
48790;BME280;41718;51.980;5.734;2023-10-09T09:46:10;101935.25;;;17.77;100.00
48790;BME280;41718;51.980;5.734;2023-10-09T09:51:13;101931.78;;;17.91;100.00
48790;BME280;41718;51.980;5.734;2023-10-09T09:56:18;101936.13;;;17.92;100.00
48790;BME280;41718;51.980;5.734;2023-10-09T10:01:30;101932.66;;;18.02;100.00
48790;BME280;41718;51.980;5.734;2023-10-09T10:06:37;101945.78;;;18.18;100.00
48790;BME280;41718;51.980;5.734;2023-10-09T10:11:45;101951.03;;;18.25;100.00
48790;BME280;41718;51.980;5.734;2023-10-09T10:16:59;101967.63;;;18.24;100.00
48790;BME280;41718;51.980;5.734;2023-10-09T10:22:24;101962.41;;;18.29;100.00
48790;BME280;41718;51.980;5.734;2023-10-09T10:27:29;101965.88;;;18.43;100.00
48790;BME280;41718;51.980;5.734;2023-10-09T10:33:03;101973.78;;;18.62;100.00
48790;BME280;41718;51.980;5.734;2023-10-09T10:38:32;101985.13;;;18.58;100.00
48790;BME280;41718;51.980;5.734;2023-10-09T10:43:35;101997.38;;;18.62;100.00
48790;BME280;41718;51.980;5.734;2023-10-09T10:48:50;102013.09;;;18.83;100.00
48790;BME280;41718;51.980;5.734;2023-10-09T10:54:01;102016.63;;;18.87;100.00
48790;BME280;41718;51.980;5.734;2023-10-09T10:59:23;102012.25;;;18.81;100.00
48790;BME280;41718;51.980;5.734;2023-10-09T11:04:31;102015.72;;;19.00;100.00
48790;BME280;41718;51.980;5.734;2023-10-09T11:09:53;102003.44;;;19.25;100.00
48790;BME280;41718;51.980;5.734;2023-10-09T11:15:14;102010.47;;;19.15;100.00
48790;BME280;41718;51.980;5.734;2023-10-09T11:20:24;102013.91;;;19.42;100.00
48790;BME280;41718;51.980;5.734;2023-10-09T11:25:27;102018.31;;;19.29;100.00
48790;BME280;41718;51.980;5.734;2023-10-09T11:30:31;102026.16;;;19.37;100.00
48790;BME280;41718;51.980;5.734;2023-10-09T11:35:34;102033.09;;;19.56;100.00
48790;BME280;41718;51.980;5.734;2023-10-09T11:40:36;102031.34;;;19.70;100.00
48790;BME280;41718;51.980;5.734;2023-10-09T11:46:10;102047.97;;;19.51;100.00
48790;BME280;41718;51.980;5.734;2023-10-09T11:51:35;102044.47;;;19.75;100.00
48790;BME280;41718;51.980;5.734;2023-10-09T11:56:44;102041.84;;;19.75;100.00
48790;BME280;41718;51.980;5.734;2023-10-09T12:01:46;102047.06;;;19.76;100.00
48790;BME280;41718;51.980;5.734;2023-10-09T12:06:54;102055.75;;;19.94;100.00
48790;BME280;41718;51.980;5.734;2023-10-09T12:12:08;102062.75;;;19.93;100.00
48790;BME280;41718;51.980;5.734;2023-10-09T12:17:12;102071.53;;;19.84;100.00
48790;BME280;41718;51.980;5.734;2023-10-09T12:22:14;102058.44;;;19.78;100.00
48790;BME280;41718;51.980;5.734;2023-10-09T12:27:18;102054.09;;;19.74;100.00
48790;BME280;41718;51.980;5.734;2023-10-09T12:32:21;102056.59;;;20.03;100.00
48790;BME280;41718;51.980;5.734;2023-10-09T12:37:23;102057.50;;;19.95;100.00
48790;BME280;41718;51.980;5.734;2023-10-09T12:42:24;102052.25;;;19.90;100.00
48790;BME280;41718;51.980;5.734;2023-10-09T12:47:29;102054.03;;;19.91;100.00
48790;BME280;41718;51.980;5.734;2023-10-09T12:52:31;102053.22;;;19.75;100.00
48790;BME280;41718;51.980;5.734;2023-10-09T12:57:33;102051.50;;;19.57;100.00
48790;BME280;41718;51.980;5.734;2023-10-09T13:02:35;102042.69;;;19.80;100.00
48790;BME280;41718;51.980;5.734;2023-10-09T13:07:37;102051.47;;;19.76;100.00
48790;BME280;41718;51.980;5.734;2023-10-09T13:12:38;102047.03;;;19.82;100.00
48790;BME280;41718;51.980;5.734;2023-10-09T13:17:43;102049.72;;;19.70;100.00
48790;BME280;41718;51.980;5.734;2023-10-09T13:22:44;102061.97;;;19.67;100.00
48790;BME280;41718;51.980;5.734;2023-10-09T13:27:50;102056.75;;;19.65;100.00
48790;BME280;41718;51.980;5.734;2023-10-09T13:32:52;102038.34;;;19.67;100.00
48790;BME280;41718;51.980;5.734;2023-10-09T13:37:53;102035.75;;;19.59;100.00
48790;BME280;41718;51.980;5.734;2023-10-09T13:42:55;102035.72;;;19.62;100.00
48790;BME280;41718;51.980;5.734;2023-10-09T13:48:00;102031.38;;;19.53;100.00
48790;BME280;41718;51.980;5.734;2023-10-09T13:53:04;102033.16;;;19.47;100.00
48790;BME280;41718;51.980;5.734;2023-10-09T13:58:12;102026.13;;;19.52;100.00
48790;BME280;41718;51.980;5.734;2023-10-09T14:03:15;102017.41;;;19.41;100.00
48790;BME280;41718;51.980;5.734;2023-10-09T14:08:21;102015.69;;;19.29;100.00
48790;BME280;41718;51.980;5.734;2023-10-09T14:13:27;102006.06;;;19.22;100.00
48790;BME280;41718;51.980;5.734;2023-10-09T14:18:30;102008.66;;;19.32;100.00
48790;BME280;41718;51.980;5.734;2023-10-09T14:23:32;101998.22;;;19.23;100.00
48790;BME280;41718;51.980;5.734;2023-10-09T14:28:36;101997.31;;;19.21;100.00
48790;BME280;41718;51.980;5.734;2023-10-09T14:33:38;102000.81;;;19.17;100.00
48790;BME280;41718;51.980;5.734;2023-10-09T14:38:41;101990.34;;;19.10;100.00
48790;BME280;41718;51.980;5.734;2023-10-09T14:43:43;101999.13;;;19.02;100.00
48790;BME280;41718;51.980;5.734;2023-10-09T14:48:45;101993.00;;;19.02;100.00
48790;BME280;41718;51.980;5.734;2023-10-09T14:53:48;101991.25;;;18.98;100.00
48790;BME280;41718;51.980;5.734;2023-10-09T14:58:50;101992.97;;;19.05;100.00
48790;BME280;41718;51.980;5.734;2023-10-09T15:03:52;101992.97;;;19.20;100.00
48790;BME280;41718;51.980;5.734;2023-10-09T15:08:57;101983.34;;;19.24;100.00
48790;BME280;41718;51.980;5.734;2023-10-09T15:14:00;101977.22;;;19.17;100.00
48790;BME280;41718;51.980;5.734;2023-10-09T15:19:01;101979.84;;;19.16;100.00
48790;BME280;41718;51.980;5.734;2023-10-09T15:24:04;101980.72;;;19.05;100.00
48790;BME280;41718;51.980;5.734;2023-10-09T15:29:06;101984.25;;;19.00;100.00
48790;BME280;41718;51.980;5.734;2023-10-09T15:34:08;101980.78;;;18.86;100.00
48790;BME280;41718;51.980;5.734;2023-10-09T15:39:10;101974.66;;;18.82;100.00
48790;BME280;41718;51.980;5.734;2023-10-09T15:44:13;101978.19;;;18.78;100.00
48790;BME280;41718;51.980;5.734;2023-10-09T15:49:18;101979.03;;;18.71;100.00
48790;BME280;41718;51.980;5.734;2023-10-09T15:54:20;101970.28;;;18.57;100.00
48790;BME280;41718;51.980;5.734;2023-10-09T15:59:22;101965.91;;;18.46;100.00
48790;BME280;41718;51.980;5.734;2023-10-09T16:04:26;101963.28;;;18.45;100.00
48790;BME280;41718;51.980;5.734;2023-10-09T16:09:27;101974.63;;;18.22;100.00
48790;BME280;41718;51.980;5.734;2023-10-09T16:14:31;101981.63;;;18.22;100.00
48790;BME280;41718;51.980;5.734;2023-10-09T16:19:33;101988.56;;;18.18;100.00
48790;BME280;41718;51.980;5.734;2023-10-09T16:24:38;101988.59;;;18.15;100.00
48790;BME280;41718;51.980;5.734;2023-10-09T16:29:41;101983.28;;;18.03;100.00
48790;BME280;41718;51.980;5.734;2023-10-09T16:34:52;101976.31;;;17.97;100.00
48790;BME280;41718;51.980;5.734;2023-10-09T16:39:54;101979.78;;;17.90;100.00
48790;BME280;41718;51.980;5.734;2023-10-09T16:44:56;101978.91;;;17.90;100.00
48790;BME280;41718;51.980;5.734;2023-10-09T16:49:58;101976.28;;;17.82;100.00
48790;BME280;41718;51.980;5.734;2023-10-09T16:55:02;101979.78;;;17.81;100.00
48790;BME280;41718;51.980;5.734;2023-10-09T17:00:04;101990.25;;;17.83;100.00
48790;BME280;41718;51.980;5.734;2023-10-09T17:05:13;101998.09;;;17.81;100.00
48790;BME280;41718;51.980;5.734;2023-10-09T17:10:15;101998.03;;;17.75;100.00
48790;BME280;41718;51.980;5.734;2023-10-09T17:15:16;101998.00;;;17.69;100.00
48790;BME280;41718;51.980;5.734;2023-10-09T17:20:18;102007.59;;;17.68;100.00
48790;BME280;41718;51.980;5.734;2023-10-09T17:25:22;101998.78;;;17.53;100.00
48790;BME280;41718;51.980;5.734;2023-10-09T17:30:24;101997.88;;;17.46;100.00
48790;BME280;41718;51.980;5.734;2023-10-09T17:35:28;102005.72;;;17.41;100.00
48790;BME280;41718;51.980;5.734;2023-10-09T17:40:32;102010.91;;;17.32;100.00
48790;BME280;41718;51.980;5.734;2023-10-09T17:45:37;102013.50;;;17.28;100.00
48790;BME280;41718;51.980;5.734;2023-10-09T17:50:44;102005.66;;;17.28;100.00
48790;BME280;41718;51.980;5.734;2023-10-09T17:55:45;102008.25;;;17.28;100.00
48790;BME280;41718;51.980;5.734;2023-10-09T18:00:51;102006.47;;;17.22;100.00
48790;BME280;41718;51.980;5.734;2023-10-09T18:05:54;102003.84;;;17.17;100.00
48790;BME280;41718;51.980;5.734;2023-10-09T18:10:57;102004.69;;;17.15;100.00
48790;BME280;41718;51.980;5.734;2023-10-09T18:16:06;102023.00;;;17.18;100.00
48790;BME280;41718;51.980;5.734;2023-10-09T18:21:18;102019.47;;;17.10;100.00
48790;BME280;41718;51.980;5.734;2023-10-09T18:26:22;102021.22;;;17.11;100.00
48790;BME280;41718;51.980;5.734;2023-10-09T18:31:25;102018.56;;;17.05;100.00
48790;BME280;41718;51.980;5.734;2023-10-09T18:36:28;102028.13;;;17.01;100.00
48790;BME280;41718;51.980;5.734;2023-10-09T18:41:31;102030.72;;;17.00;100.00
48790;BME280;41718;51.980;5.734;2023-10-09T18:46:34;102029.88;;;16.99;100.00
48790;BME280;41718;51.980;5.734;2023-10-09T18:51:39;102029.78;;;16.90;100.00
48790;BME280;41718;51.980;5.734;2023-10-09T18:56:46;102035.88;;;16.89;100.00
48790;BME280;41718;51.980;5.734;2023-10-09T19:01:52;102034.13;;;16.88;100.00
48790;BME280;41718;51.980;5.734;2023-10-09T19:06:54;102042.81;;;16.82;100.00
48790;BME280;41718;51.980;5.734;2023-10-09T19:11:58;102039.31;;;16.82;100.00
48790;BME280;41718;51.980;5.734;2023-10-09T19:17:03;102048.03;;;16.79;100.00
48790;BME280;41718;51.980;5.734;2023-10-09T19:22:14;102041.00;;;16.78;100.00
48790;BME280;41718;51.980;5.734;2023-10-09T19:27:19;102043.63;;;16.74;100.00
48790;BME280;41718;51.980;5.734;2023-10-09T19:32:37;102040.09;;;16.72;100.00
48790;BME280;41718;51.980;5.734;2023-10-09T19:37:49;102040.88;;;16.64;100.00
48790;BME280;41718;51.980;5.734;2023-10-09T19:42:57;102048.72;;;16.66;100.00
48790;BME280;41718;51.980;5.734;2023-10-09T19:47:59;102054.75;;;16.60;100.00
48790;BME280;41718;51.980;5.734;2023-10-09T19:53:03;102048.66;;;16.58;100.00
48790;BME280;41718;51.980;5.734;2023-10-09T19:58:05;102040.75;;;16.54;100.00
48790;BME280;41718;51.980;5.734;2023-10-09T20:03:15;102047.72;;;16.53;100.00
48790;BME280;41718;51.980;5.734;2023-10-09T20:08:16;102053.81;;;16.51;100.00
48790;BME280;41718;51.980;5.734;2023-10-09T20:13:18;102036.34;;;16.45;100.00
48790;BME280;41718;51.980;5.734;2023-10-09T20:18:22;102040.66;;;16.43;100.00
48790;BME280;41718;51.980;5.734;2023-10-09T20:23:24;102037.19;;;16.42;100.00
48790;BME280;41718;51.980;5.734;2023-10-09T20:28:27;102052.78;;;16.38;100.00
48790;BME280;41718;51.980;5.734;2023-10-09T20:33:30;102050.19;;;16.38;100.00
48790;BME280;41718;51.980;5.734;2023-10-09T20:38:39;102051.91;;;16.36;100.00
48790;BME280;41718;51.980;5.734;2023-10-09T20:43:41;102045.81;;;16.35;100.00
48790;BME280;41718;51.980;5.734;2023-10-09T20:48:44;102037.91;;;16.29;100.00
48790;BME280;41718;51.980;5.734;2023-10-09T20:53:48;102046.63;;;16.30;100.00
48790;BME280;41718;51.980;5.734;2023-10-09T20:58:52;102043.09;;;16.28;100.00
48790;BME280;41718;51.980;5.734;2023-10-09T21:03:58;102048.31;;;16.25;100.00
48790;BME280;41718;51.980;5.734;2023-10-09T21:09:07;102044.81;;;16.23;100.00
48790;BME280;41718;51.980;5.734;2023-10-09T21:14:11;102045.63;;;16.19;100.00
48790;BME280;41718;51.980;5.734;2023-10-09T21:19:17;102040.41;;;16.17;100.00
48790;BME280;41718;51.980;5.734;2023-10-09T21:24:21;102040.31;;;16.11;100.00
48790;BME280;41718;51.980;5.734;2023-10-09T21:29:25;102035.13;;;16.14;100.00
48790;BME280;41718;51.980;5.734;2023-10-09T21:34:28;102042.97;;;16.14;100.00
48790;BME280;41718;51.980;5.734;2023-10-09T21:39:29;102046.44;;;16.13;100.00
48790;BME280;41718;51.980;5.734;2023-10-09T21:44:34;102037.59;;;16.00;100.00
48790;BME280;41718;51.980;5.734;2023-10-09T21:49:36;102026.25;;;15.98;100.00
48790;BME280;41718;51.980;5.734;2023-10-09T21:54:38;102012.19;;;15.85;100.00
48790;BME280;41718;51.980;5.734;2023-10-09T21:59:40;102014.78;;;15.84;100.00
48790;BME280;41718;51.980;5.734;2023-10-09T22:04:47;102011.25;;;15.79;100.00
48790;BME280;41718;51.980;5.734;2023-10-09T22:09:49;102005.00;;;15.68;100.00
48790;BME280;41718;51.980;5.734;2023-10-09T22:14:54;101998.75;;;15.56;100.00
48790;BME280;41718;51.980;5.734;2023-10-09T22:20:01;101988.22;;;15.50;100.00
48790;BME280;41718;51.980;5.734;2023-10-09T22:25:05;101989.19;;;15.58;100.00
48790;BME280;41718;51.980;5.734;2023-10-09T22:30:09;101975.13;;;15.47;100.00
48790;BME280;41718;51.980;5.734;2023-10-09T22:35:14;101955.91;;;15.39;100.00
48790;BME280;41718;51.980;5.734;2023-10-09T22:40:20;101945.56;;;15.44;100.00
48790;BME280;41718;51.980;5.734;2023-10-09T22:45:27;101937.75;;;15.47;100.00
48790;BME280;41718;51.980;5.734;2023-10-09T22:50:35;101926.44;;;15.46;100.00
48790;BME280;41718;51.980;5.734;2023-10-09T22:55:39;101922.97;;;15.46;100.00
48790;BME280;41718;51.980;5.734;2023-10-09T23:00:45;101901.25;;;15.47;100.00
48790;BME280;41718;51.980;5.734;2023-10-09T23:05:54;101883.97;;;15.58;100.00
48790;BME280;41718;51.980;5.734;2023-10-09T23:10:58;101877.75;;;15.45;100.00
48790;BME280;41718;51.980;5.734;2023-10-09T23:16:14;101866.47;;;15.46;100.00
48790;BME280;41718;51.980;5.734;2023-10-09T23:21:16;101863.72;;;15.32;100.00
48790;BME280;41718;51.980;5.734;2023-10-09T23:26:30;101848.09;;;15.35;100.00
48790;BME280;41718;51.980;5.734;2023-10-09T23:31:36;101853.22;;;15.28;100.00
48790;BME280;41718;51.980;5.734;2023-10-09T23:36:48;101849.75;;;15.29;100.00
48790;BME280;41718;51.980;5.734;2023-10-09T23:41:49;101836.69;;;15.27;100.00
48790;BME280;41718;51.980;5.734;2023-10-09T23:47:03;101828.97;;;15.36;100.00
48790;BME280;41718;51.980;5.734;2023-10-09T23:52:10;101825.41;;;15.28;100.00
48790;BME280;41718;51.980;5.734;2023-10-09T23:57:15;101815.81;;;15.26;100.00
